Latest METARs, TAFs and NOTAMs for FALA


---------------------------------------------------------------------------
	(OBSERVATIONS)
FALA 212200Z AUTO 12003KT //// ////// 19/07 Q1027=
FALA 212100Z AUTO 11004KT //// ////// 20/07 Q1027=
---------------------------------------------------------------------------
	(TERMINAL AREA FORECAST)
FALA 212200Z 2200/2224 VRB03KT CAVOK
    FM220900 32012KT CAVOK
    BECMG 2222/2224 VRB03KT
    TX29/2213Z TN15/2204Z=
---------------------------------------------------------------------------
	(NOTAMS)


FALA A2667/17 STEYN CITY CENTRE, DIEPSLOOT, JOHANNESBURG (255821S
    0280044E, 255822S 0280047E): 2X CRANES (155FT AGL) WITH DAY
    AND NGT MARKINGS ERECTED. GND - 4900FT AMSL, 21 JUL 12:42
    2017 UNTIL 09 OCT 12:00 2017 ESTIMATED. CREATED: 21 JUL 12:42
    2017

FALA A2729/17 ATC TRG TAKING PLACE ON SMC 121.65 MHZ. 27 JUL
    08:19 2017 UNTIL 18 OCT 10:00 2017 ESTIMATED. CREATED: 27
    JUL 08:38 2017

FALA A2730/17 ATC TRG ON TWR 124.0 MHZ TAKING PLACE. 27 JUL 08:20
    2017 UNTIL 20 OCT 10:00 2017 ESTIMATED. CREATED: 27 JUL 08:39
    2017

FALA A2881/17 ALONG R511, RIVERGLEN (255823.63S 0280037.35E ,
    255827.47S 0280038.35E, 255833S 0280041E): 3 CRANES (200FT
    AGL) WITH DAY AND NGT MARKINGS ERECTED. GND - 4880FT AMSL,
    07 AUG 13:15 2017 UNTIL 03 NOV 10:00 2017 ESTIMATED. CREATED:
    07 AUG 13:16 2017

FALA A3019/17 DUE TO INSUFFICIENT FALA AIRSPACE TO THE EAST,
    NORTH EAST AND NORTH OF LIV, THE FLW SHOULD BE NOTED BY PILOTS
    FLYING IFR IN AND OUT OF FALA. IFR DEP AND ARR: ATC CLR ARE
    VALID FOR OPR INSIDE CONTROLLED AIRSPACE AND PILOTS ARE REQUIRED
    TO INFORM ATC IF UNABLE TO REMAIN WITHIN CONTROLLED AIRSPACE
    (TO OBTAIN KNOWN TFC INFO). IFR TFC LEAVING CONTROLLED AIRSPACE
    REQUIRED TO BCST INTENTIONS AND LISTEN OUT ON 125.8 MHZ FOR
    THE DURATION THEY ARE IN CONTROLLED AIRSPACE. IFR TFC ARE
    WARNED OF THE RELATIVELY HIGH VOLUME OF TFC ON THE VFR BLUE
    ROUTE AND ALONG THE CTR AND TMA BOUNDARIES. 19 AUG 05:11
    2017 UNTIL 17 NOV 20:00 2017 ESTIMATED. CREATED: 19 AUG 05:16
    2017

FALA A3020/17 ILS RWY 07 INSTL 110.7 MHZ AND DME CH 44X IDENTITY
    TEST. ONLY FOR TEST PURPOSE, NOT TO BE USED. 19 AUG 05:14
    2017 UNTIL 17 OCT 08:00 2017 ESTIMATED. CREATED: 19 AUG 05:17
    2017

FALA A3335/17 ATIS 127.65 MHZ U/S. 11 SEP 06:49 2017 UNTIL 30
    SEP 10:00 2017 ESTIMATED. CREATED: 11 SEP 07:00 2017

FALA A3413/17 TWY R CLSD. 18 SEP 04:30 2017 UNTIL 06 OCT 10:00
    2017 ESTIMATED. CREATED: 15 SEP 07:06 2017

FALA A3507/17 TWY A1 CLSD. 23 SEP 05:00 2017 UNTIL 23 SEP 15:00
    2017 ESTIMATED. CREATED: 21 SEP 08:35 2017

---------------------------------------------------------------------------